createdAt,value
2022-10-17T00:00:44.166Z,23.97
2022-10-17T00:05:51.377Z,23.93
2022-10-17T00:10:58.633Z,23.89
2022-10-17T00:16:05.870Z,23.86
2022-10-17T00:21:13.047Z,23.84
2022-10-17T00:26:20.286Z,23.83
2022-10-17T00:31:27.449Z,23.81
2022-10-17T00:36:34.674Z,23.78
2022-10-17T00:41:41.923Z,23.74
2022-10-17T00:46:49.209Z,23.71
2022-10-17T00:51:56.388Z,23.69
2022-10-17T00:57:03.628Z,23.68
2022-10-17T01:02:10.810Z,23.65
2022-10-17T01:07:18.017Z,23.63
2022-10-17T01:12:25.570Z,23.60
2022-10-17T01:17:32.418Z,23.58
2022-10-17T01:22:39.617Z,23.55
2022-10-17T01:27:49.523Z,23.54
2022-10-17T01:32:56.788Z,23.53
2022-10-17T01:38:04.005Z,23.50
2022-10-17T01:43:11.243Z,23.48
2022-10-17T01:48:18.463Z,23.47
2022-10-17T01:53:25.777Z,23.43
2022-10-17T01:58:33.011Z,23.43
2022-10-17T02:03:40.181Z,23.44
2022-10-17T02:08:47.392Z,23.43
2022-10-17T02:13:54.657Z,23.44
2022-10-17T02:19:02.261Z,23.42
2022-10-17T02:24:09.465Z,23.41
2022-10-17T02:29:16.707Z,23.42
2022-10-17T02:34:23.862Z,23.42
2022-10-17T02:39:31.092Z,23.40
2022-10-17T02:44:38.411Z,23.40
2022-10-17T02:49:45.584Z,23.39
2022-10-17T02:54:52.874Z,23.39
2022-10-17T03:00:00.198Z,23.40
2022-10-17T03:05:07.379Z,23.38
2022-10-17T03:10:14.621Z,23.36
2022-10-17T03:15:21.844Z,23.37
2022-10-17T03:20:29.061Z,23.34
2022-10-17T03:25:36.281Z,23.32
2022-10-17T03:30:43.490Z,23.31
2022-10-17T03:40:57.797Z,23.32
2022-10-17T03:46:05.290Z,23.32
2022-10-17T03:51:12.244Z,23.29
2022-10-17T03:56:19.463Z,23.28
2022-10-17T04:01:26.767Z,23.27
2022-10-17T04:06:33.869Z,23.26
2022-10-17T04:11:41.083Z,23.28
2022-10-17T04:16:48.345Z,23.26
2022-10-17T04:21:55.592Z,23.25
2022-10-17T04:27:02.836Z,23.25
2022-10-17T04:32:10.120Z,23.22
2022-10-17T04:37:17.358Z,23.21
2022-10-17T04:42:24.606Z,23.22
2022-10-17T04:47:31.848Z,23.18
2022-10-17T04:52:39.025Z,23.16
2022-10-17T04:57:46.208Z,23.14
2022-10-17T05:02:53.471Z,23.08
2022-10-17T05:08:00.658Z,23.09
2022-10-17T05:13:07.843Z,23.11
2022-10-17T05:18:15.062Z,23.11
2022-10-17T05:23:22.232Z,23.09
2022-10-17T05:28:29.627Z,23.07
2022-10-17T05:33:36.813Z,23.07
2022-10-17T05:38:43.960Z,23.07
2022-10-17T05:43:51.143Z,23.04
2022-10-17T05:48:58.427Z,23.03
2022-10-17T05:54:05.564Z,23.01
2022-10-17T05:59:12.795Z,22.99
2022-10-17T06:04:20.135Z,22.96
2022-10-17T06:09:27.136Z,22.95
2022-10-17T06:14:34.382Z,22.95
2022-10-17T06:19:41.594Z,22.91
2022-10-17T06:24:48.726Z,22.93
2022-10-17T06:29:55.993Z,22.93
2022-10-17T06:35:03.267Z,22.91
2022-10-17T06:40:10.401Z,22.92
2022-10-17T06:45:17.636Z,22.90
2022-10-17T06:50:25.056Z,22.89
2022-10-17T06:55:32.326Z,22.88
2022-10-17T07:00:39.717Z,22.88
2022-10-17T07:05:46.859Z,22.88
2022-10-17T07:10:54.035Z,22.88
2022-10-17T07:16:01.281Z,22.89
2022-10-17T07:21:08.556Z,22.89
2022-10-17T07:26:15.755Z,22.91
2022-10-17T07:31:23.174Z,22.93
2022-10-17T07:36:30.609Z,22.92
2022-10-17T07:41:37.820Z,22.93
2022-10-17T07:46:45.004Z,22.92
2022-10-17T07:51:52.254Z,22.94
2022-10-17T07:56:59.469Z,23.01
2022-10-17T08:02:06.696Z,23.01
2022-10-17T08:07:20.958Z,23.01
2022-10-17T08:12:21.261Z,23.02
2022-10-17T08:17:28.438Z,23.01
2022-10-17T08:22:37.697Z,23.02
2022-10-17T08:27:44.893Z,23.04
2022-10-17T08:32:52.188Z,23.05
2022-10-17T08:37:59.429Z,23.05
2022-10-17T08:43:06.599Z,23.04
2022-10-17T08:48:13.754Z,23.04
2022-10-17T08:53:20.971Z,23.05
2022-10-17T08:58:28.137Z,23.07
2022-10-17T09:03:35.417Z,23.09
2022-10-17T09:08:42.736Z,23.11
2022-10-17T09:13:49.896Z,23.11
2022-10-17T09:18:57.097Z,23.12
2022-10-17T09:24:09.710Z,23.14
2022-10-17T09:29:11.547Z,23.16
2022-10-17T09:34:18.777Z,23.16
2022-10-17T09:39:26.073Z,23.20
2022-10-17T09:44:33.274Z,23.21
2022-10-17T09:49:40.511Z,23.22
2022-10-17T09:54:47.749Z,23.24
2022-10-17T09:59:55.179Z,23.26
2022-10-17T10:05:05.600Z,23.27
2022-10-17T10:10:09.943Z,23.25
2022-10-17T10:15:17.179Z,23.27
2022-10-17T10:20:24.391Z,23.28
2022-10-17T10:25:31.631Z,23.29
2022-10-17T10:30:41.783Z,23.29
2022-10-17T10:35:49.025Z,23.30
2022-10-17T10:40:56.209Z,23.26
2022-10-17T10:46:03.389Z,23.28
2022-10-17T10:51:10.589Z,23.29
2022-10-17T10:56:17.879Z,23.29
2022-10-17T11:01:25.014Z,23.31
2022-10-17T11:06:32.220Z,23.34
2022-10-17T11:11:39.441Z,23.34
2022-10-17T11:16:46.805Z,23.35
2022-10-17T11:21:54.031Z,23.36
2022-10-17T11:27:01.269Z,23.38
2022-10-17T11:32:08.437Z,23.39
2022-10-17T11:37:15.858Z,23.41
2022-10-17T11:42:23.092Z,23.43
2022-10-17T11:47:30.263Z,23.44
2022-10-17T11:52:55.515Z,23.45
2022-10-17T11:57:44.717Z,23.46
2022-10-17T12:02:51.875Z,23.47
2022-10-17T12:07:59.122Z,23.49
2022-10-17T12:13:06.399Z,23.46
2022-10-17T12:18:13.619Z,23.48
2022-10-17T12:23:20.791Z,23.50
2022-10-17T12:28:28.112Z,23.52
2022-10-17T12:33:35.199Z,23.52
2022-10-17T12:38:43.094Z,23.50
2022-10-17T12:48:57.590Z,23.51
2022-10-17T12:54:04.869Z,23.52
2022-10-17T12:59:12.066Z,23.54
2022-10-17T13:04:19.239Z,23.51
2022-10-17T13:09:26.459Z,23.51
2022-10-17T13:14:34.536Z,23.51
2022-10-17T13:19:41.807Z,23.53
2022-10-17T13:24:49.030Z,23.51
2022-10-17T13:29:56.274Z,23.50
2022-10-17T13:35:03.601Z,23.50
2022-10-17T13:40:30.895Z,23.49
2022-10-17T13:45:18.092Z,23.50
2022-10-17T13:50:42.997Z,23.52
2022-10-17T13:55:32.532Z,23.53
2022-10-17T14:00:39.781Z,23.52
2022-10-17T14:05:46.900Z,23.52
2022-10-17T14:10:54.144Z,23.53
2022-10-17T14:16:01.405Z,23.55
2022-10-17T14:21:36.885Z,23.55
2022-10-17T14:26:15.763Z,23.55
2022-10-17T14:31:27.454Z,23.56
2022-10-17T14:36:34.666Z,23.57
2022-10-17T14:41:43.517Z,23.55
2022-10-17T14:46:51.013Z,23.57
2022-10-17T14:52:03.903Z,23.57
2022-10-17T14:57:03.580Z,23.59
2022-10-17T15:02:10.833Z,23.57
2022-10-17T15:07:18.070Z,23.58
2022-10-17T15:12:25.561Z,23.58
2022-10-17T15:17:32.571Z,23.60
2022-10-17T15:22:39.767Z,23.60
2022-10-17T15:27:46.948Z,23.58
2022-10-17T15:32:54.162Z,23.60
2022-10-17T15:38:01.305Z,23.58
2022-10-17T15:43:08.471Z,23.58
2022-10-17T15:48:15.816Z,23.59
2022-10-17T15:53:23.040Z,23.63
2022-10-17T15:58:30.278Z,23.60
2022-10-17T16:03:37.492Z,23.60
2022-10-17T16:08:44.662Z,23.59
2022-10-17T16:13:51.863Z,23.59
2022-10-17T16:18:59.093Z,23.60
2022-10-17T16:24:06.269Z,23.57
2022-10-17T16:29:13.500Z,23.56
2022-10-17T16:34:20.695Z,23.56
2022-10-17T16:44:35.103Z,23.56
2022-10-17T16:49:45.196Z,23.58
2022-10-17T16:54:49.544Z,23.59
2022-10-17T16:59:56.837Z,23.59
2022-10-17T17:05:04.353Z,23.57
2022-10-17T17:10:11.645Z,23.60
2022-10-17T17:15:18.889Z,23.59
2022-10-17T17:20:26.234Z,23.62
2022-10-17T17:25:33.462Z,23.62
2022-10-17T17:30:40.706Z,23.62
2022-10-17T17:35:48.632Z,23.60
2022-10-17T17:40:55.752Z,23.59
2022-10-17T17:46:02.990Z,23.58
2022-10-17T17:51:10.410Z,23.57
2022-10-17T17:56:18.011Z,23.57
2022-10-17T18:01:25.374Z,23.56
2022-10-17T18:06:32.855Z,23.55
2022-10-17T18:11:40.165Z,23.55
2022-10-17T18:16:47.750Z,23.55
2022-10-17T18:21:55.386Z,23.53
2022-10-17T18:27:02.976Z,23.52
2022-10-17T18:32:10.585Z,23.50
2022-10-17T18:37:17.954Z,23.49
2022-10-17T18:42:25.309Z,23.46
2022-10-17T18:47:33.334Z,23.43
2022-10-17T18:52:41.071Z,23.41
2022-10-17T18:57:48.661Z,23.39
2022-10-17T19:02:56.271Z,23.35
2022-10-17T19:08:03.661Z,23.34
2022-10-17T19:13:11.203Z,23.33
2022-10-17T19:18:18.559Z,23.31
2022-10-17T19:23:25.851Z,23.30
2022-10-17T19:28:33.289Z,23.31
2022-10-17T19:33:40.666Z,23.31
2022-10-17T19:38:47.923Z,23.32
2022-10-17T19:43:55.147Z,23.28
2022-10-17T19:49:02.661Z,23.30
2022-10-17T19:54:10.101Z,23.31
2022-10-17T19:59:17.421Z,23.30
2022-10-17T20:04:24.608Z,23.30
2022-10-17T20:09:32.532Z,23.29
2022-10-17T20:14:41.168Z,23.28
2022-10-17T20:19:47.018Z,23.29
2022-10-17T20:24:54.268Z,23.27
2022-10-17T20:30:01.428Z,23.29
2022-10-17T20:35:08.617Z,23.27
2022-10-17T20:40:34.141Z,23.27
2022-10-17T20:45:37.383Z,23.24
2022-10-17T20:50:30.259Z,23.24
2022-10-17T20:55:37.513Z,23.19
2022-10-17T21:00:44.716Z,23.11
2022-10-17T21:05:51.965Z,23.05
2022-10-17T21:10:59.188Z,23.03
2022-10-17T21:16:06.454Z,23.13
2022-10-17T21:21:13.706Z,23.25
2022-10-17T21:26:20.904Z,23.33
2022-10-17T21:31:28.033Z,23.39
2022-10-17T21:36:35.251Z,23.43
2022-10-17T21:41:42.437Z,23.51
2022-10-17T21:46:49.803Z,23.57
2022-10-17T21:51:56.974Z,23.64
2022-10-17T21:57:04.346Z,23.69
2022-10-17T22:02:11.415Z,23.69
2022-10-17T22:07:18.646Z,23.73
2022-10-17T22:12:28.375Z,23.73
2022-10-17T22:17:35.372Z,23.74
2022-10-17T22:22:42.668Z,23.78
2022-10-17T22:27:49.938Z,23.71
2022-10-17T22:32:57.070Z,23.65
2022-10-17T22:38:04.304Z,23.59
2022-10-17T22:43:11.538Z,23.54
2022-10-17T22:48:18.658Z,23.51
2022-10-17T22:53:27.242Z,23.46
2022-10-17T22:58:34.487Z,23.43
2022-10-17T23:03:41.663Z,23.40
2022-10-17T23:08:48.897Z,23.39
2022-10-17T23:13:56.133Z,23.34
2022-10-17T23:19:03.292Z,23.35
2022-10-17T23:24:12.627Z,23.32
2022-10-17T23:29:19.867Z,23.29
2022-10-17T23:34:27.014Z,23.27
2022-10-17T23:39:34.274Z,23.26
2022-10-17T23:44:41.497Z,23.23
2022-10-17T23:49:48.725Z,23.23
2022-10-17T23:54:55.948Z,23.21
